Etusivu
METAR-TAF:

METAR-TAF

Lentoasemat :

Gabès, Tunisia

Leveyspiiri: 33-53N, Pituuspiiri: 010-06E, korkeus merenpinnasta: 4 m

Tämänhetkinen sää

Tämä raportti tehtiin 21 minuuttia sitten, kello 07.00 UTC
Tuuli 5 kn lännestä/lounaasta
Lämpötila 28°C
Kosteus 20%
Ilmanpaine 1014 hPa
Näkyvyys: 8000 m

METAR: DTTG 190700Z 24005KT 8000 NSC 28/03 Q1014 NOSIG

Aika: 08:21 (07:21 UTC)

Sääennuste

Tämä raportti tehtiin 1 tunti ja 21 minuuttia sitten, kello 06.00 UTC
Ennuste voimassa 19. päivästä klo 07 UTC - 19. päivään klo 16 UTC
Tuuli 5 kn etelästä/lounaasta
Näkyvyys: 8000 m
Tulossa
19. päivästä klo 07 UTC - 19. päivään klo 09 UTC
Tuuli 10 kn idästä/koillisesta

TAF: DTTG 190600Z 1907/1916 21005KT 8000 NSC BECMG 1907/1909 06010KT

Säähavainnot ja -ennusteet yli 4000 lentoasemalta (METAR- ja TAF-raportit).

Käytössä olevat sääasemat on merkitty karttaan keltaisilla ja punaisilla pisteillä.

Aseta hiiri pisteen päälle nähdäksesi sääaseman nimen.

Klikkaa sitten nähdäksesi säähavainnot ja -ennusteet.

Kartan vaihtaminen: klikkaa mustalla rastilla varustettuja vihreitä pisteitä, niin voit zoomata sisään; viivalla varustettua vihreää pistettä, niin voit zoomata ulos tai vihreitä nuolia, niin pääset viereisille kartoille.


METAR-TAF: